Clipper Saga — LAFY6 — position and weather

sailwx.info

Track history (hours):
 
Tides and Currents Weather Stations Pressure Air Temp Water Temp Dewpoint Dewpoint Depression Visibility Wind Speed Wind Dir Waves Ship Positions

Clipper Saga

Last reported at 2014-Aug-22 15:32 UTC. Time now 2014-Aug-22 15:47 UTC.
Position N 51°42' E 003°18'.

Length 89 m; draft 5.9 m.

Type: Ship (hazmat cat C). MMSI: 246657008.

Date/timePositionNaut miles runAvg speedWind from/ knotsBaromVisibWave heightAir tempDewpointWater temp
2014-Aug-22 15:32N 51°42' E 003°18'6510.8
2014-Aug-22 09:34N 52°31' E 002°10'1212.3
2014-Aug-22 08:34N 52°42' E 002°02'1312.8
2014-Aug-22 07:33N 52°51' E 001°46'1413.6
2014-Aug-22 06:34N 53°01' E 001°30'1413.5
2014-Aug-22 05:33N 53°11' E 001°15'2813.1
2014-Aug-22 03:24N 53°27' E 000°37'1112.7
2014-Aug-22 02:33N 53°32' E 000°21'1110.6
2014-Aug-22 01:34N 53°35' E 000°04'1010.1
2014-Aug-22 00:33N 53°39' W 000°12'5 5.0
2014-Aug-21 23:34N 53°44' W 000°15'0 0.0
2014-Aug-21 22:31N 53°44' W 000°15'0 0.0
2014-Aug-21 21:16N 53°44' W 000°15'0 0.0
2014-Aug-21 20:31N 53°44' W 000°15'0 0.0
2014-Aug-21 19:19N 53°44' W 000°15'0 0.0
2014-Aug-21 18:28N 53°44' W 000°15'0 0.0
2014-Aug-21 17:28N 53°44' W 000°15'0 0.0
2014-Aug-21 16:28N 53°44' W 000°15'0 0.0
2014-Aug-21 15:22N 53°44' W 000°15'0 0.0
2014-Aug-21 14:22N 53°44' W 000°15'0 0.0
2014-Aug-21 13:25N 53°44' W 000°15'0 0.0
2014-Aug-21 12:28N 53°44' W 000°15'4 4.1
2014-Aug-21 11:33N 53°40' W 000°13'1211.8
2014-Aug-21 10:33N 53°35' E 000°05'9 9.1
2014-Aug-21 09:33N 53°37' E 000°20'1010.3
2014-Aug-21 08:32N 53°40' E 000°36'23210.5
2014-Aug-20 10:33N 54°12' E 007°06'8 8.6
2014-Aug-20 09:33N 54°12' E 007°20'7 6.7
2014-Aug-20 08:33N 54°09' E 007°31'7 7.3
2014-Aug-20 07:33N 54°03' E 007°37'7 6.7
2014-Aug-20 06:30N 53°57' E 007°43'5 5.4
2014-Aug-20 05:33N 53°53' E 007°48'6 6.4
2014-Aug-20 04:33N 53°49' E 007°57'9 8.6
2014-Aug-20 03:33N 53°42' E 008°05'5 4.7
2014-Aug-20 02:33N 53°37' E 008°08'0 0.0
2014-Aug-20 01:29N 53°37' E 008°08'0 0.0
2014-Aug-20 00:29N 53°37' E 008°08'0 0.0
2014-Aug-19 23:32N 53°37' E 008°08'0 0.0
2014-Aug-19 22:26N 53°37' E 008°08'0 0.0
2014-Aug-19 21:32N 53°37' E 008°08'0 0.0
2014-Aug-19 20:23N 53°37' E 008°08'0 0.0
2014-Aug-19 19:26N 53°37' E 008°08'0 0.0
2014-Aug-19 17:32N 53°37' E 008°08'0 0.0
2014-Aug-19 16:32N 53°37' E 008°08'0 0.0
2014-Aug-19 15:29N 53°37' E 008°08'0 0.0
2014-Aug-19 14:26N 53°37' E 008°08'0 0.0
2014-Aug-19 13:14N 53°37' E 008°08'0 0.0
2014-Aug-19 12:33N 53°37' E 008°08'6 6.1
2014-Aug-19 11:33N 53°43' E 008°04'10 9.0
2014-Aug-19 10:28N 53°50' E 007°53'11 9.6
2014-Aug-19 09:21N 53°54' E 007°36'54 9.2
2014-Aug-19 03:33N 53°42' E 006°07'1211.9
2014-Aug-19 02:33N 53°38' E 005°48'1212.0
2014-Aug-19 01:33N 53°34' E 005°29'1212.3
2014-Aug-19 00:33N 53°31' E 005°10'1212.4
2014-Aug-18 23:33N 53°25' E 004°51'2711.4
2014-Aug-18 21:14N 53°04' E 004°25'811.6
2014-Aug-18 20:33N 52°57' E 004°19'1111.2
2014-Aug-18 19:33N 52°47' E 004°11'1110.9
2014-Aug-18 18:33N 52°39' E 003°59'9 9.5
2014-Aug-18 17:33N 52°30' E 003°54'9 8.9
2014-Aug-18 16:33N 52°21' E 003°52'8 8.1
2014-Aug-18 15:33N 52°13' E 003°53'8 7.7
2014-Aug-18 14:33N 52°05' E 003°56'6 5.6
2014-Aug-18 13:33N 52°00' E 004°00'8 7.8
2014-Aug-18 12:33N 51°56' E 004°11'0 0.0
2014-Aug-18 09:21N 51°56' E 004°11'0 0.0
2014-Aug-18 08:33N 51°56' E 004°11'0 0.0
2014-Aug-18 05:15N 51°56' E 004°11'0 0.0
2014-Aug-18 03:15N 51°56' E 004°11'0 0.0
2014-Aug-18 01:18N 51°56' E 004°11'0 0.0
2014-Aug-18 00:24N 51°56' E 004°11'0 0.0
2014-Aug-17 18:06N 51°56' E 004°11'0 0.3
2014-Aug-17 17:33N 51°56' E 004°11'10 9.8
2014-Aug-17 16:33N 51°60' E 003°57'9 7.6
2014-Aug-17 15:20N 51°55' E 003°44'0 0.0
2014-Aug-17 14:05N 51°55' E 003°44'0 0.0
2014-Aug-17 12:23N 51°55' E 003°44'0 0.0
2014-Aug-17 10:29N 51°55' E 003°44'0 0.0
2014-Aug-17 09:26N 51°55' E 003°43'0 0.0
2014-Aug-17 06:23N 51°55' E 003°43'0 0.1
2014-Aug-17 04:29N 51°55' E 003°43'0 0.0
2014-Aug-16 21:27N 51°56' E 003°44'138 5.5
2014-Aug-15 20:21N 53°34' E 001°05'1012.0
2014-Aug-15 19:32N 53°34' E 000°48'1212.0
2014-Aug-15 18:33N 53°32' E 000°28'1111.2
2014-Aug-15 17:33N 53°33' E 000°10'1010.1
2014-Aug-15 16:33N 53°37' W 000°06'4 3.6
2014-Aug-15 15:33N 53°38' W 000°11'0 0.0
2014-Aug-15 14:22N 53°38' W 000°11'0 0.0
2014-Aug-15 13:25N 53°38' W 000°11'0 0.0
2014-Aug-15 12:04N 53°38' W 000°11'0 0.0
2014-Aug-15 11:25N 53°38' W 000°11'0 0.0
2014-Aug-15 10:13N 53°38' W 000°11'0 0.0
2014-Aug-15 09:25N 53°38' W 000°11'0 0.0
2014-Aug-15 08:25N 53°38' W 000°11'0 0.0
2014-Aug-15 07:31N 53°38' W 000°11'0 0.0
2014-Aug-15 06:25N 53°38' W 000°11'0 0.0
2014-Aug-15 05:31N 53°38' W 000°11'0 0.0
2014-Aug-15 04:31N 53°38' W 000°11'0 0.0
2014-Aug-15 03:31N 53°38' W 000°11'0 0.0
2014-Aug-15 02:22N 53°38' W 000°11'0 0.0
2014-Aug-15 01:22N 53°38' W 000°11'0 0.0
2014-Aug-15 00:31N 53°38' W 000°11'0 0.0
2014-Aug-14 23:25N 53°38' W 000°11'0 0.0
2014-Aug-14 22:25N 53°38' W 000°11'0 0.0
2014-Aug-14 21:25N 53°38' W 000°11'0 0.0
2014-Aug-14 20:28N 53°38' W 000°11'0 0.0
2014-Aug-14 19:25N 53°38' W 000°11'0 0.0
2014-Aug-14 18:28N 53°38' W 000°11'0 0.0
2014-Aug-14 17:31N 53°38' W 000°11'0 0.0
2014-Aug-14 16:28N 53°38' W 000°11'0 0.3
2014-Aug-14 15:33N 53°38' W 000°12'8 8.5
2014-Aug-14 14:33N 53°36' E 000°02'9 9.0
2014-Aug-14 13:33N 53°33' E 000°17'5 5.3
2014-Aug-14 12:33N 53°35' E 000°25'0 0.0
2014-Aug-14 11:27N 53°35' E 000°25'0 0.0
2014-Aug-14 10:12N 53°35' E 000°25'0 0.1
2014-Aug-14 08:24N 53°35' E 000°25'0 0.0
2014-Aug-14 07:30N 53°35' E 000°25'0 0.0
2014-Aug-14 06:27N 53°35' E 000°25'6 6.1
2014-Aug-14 05:33N 53°33' E 000°34'3411.2
2014-Aug-14 02:33N 53°12' E 001°18'1312.7
2014-Aug-14 01:33N 53°01' E 001°30'1211.8
2014-Aug-14 00:33N 52°53' E 001°42'1010.3
2014-Aug-13 23:33N 52°47' E 001°56'10 9.5
2014-Aug-13 22:30N 52°41' E 002°10'9 9.6
2014-Aug-13 21:31N 52°36' E 002°23'5711.5
2014-Aug-13 16:34N 52°06' E 003°42'10 9.6
2014-Aug-13 15:33N 52°02' E 003°57'1110.9
2014-Aug-13 14:33N 51°56' E 004°12'4 4.5
2014-Aug-13 13:33N 51°53' E 004°16'0 0.0
2014-Aug-13 10:23N 51°53' E 004°16'0 0.0
2014-Aug-13 03:11N 51°53' E 004°16'0 0.0
2014-Aug-12 19:11N 51°53' E 004°16'0 0.0
2014-Aug-12 17:13N 51°53' E 004°16'0 0.0
2014-Aug-12 16:31N 51°53' E 004°16'  
Track history (hours):
 
Tides and Currents Weather Stations Pressure Air Temp Water Temp Dewpoint Dewpoint Depression Visibility Wind Speed Wind Dir Waves Ship Positions

Clipper Saga

Last reported at 2014-Aug-22 15:32 UTC. Time now 2014-Aug-22 15:47 UTC.
Position N 51°42' E 003°18'.

Length 89 m; draft 5.9 m.

Type: Ship (hazmat cat C). MMSI: 246657008.

Date/timePositionNaut miles runAvg speedWind from/ knotsBaromVisibWave heightAir tempDewpointWater temp
2014-Aug-22 15:32N 51°42' E 003°18'6510.8
2014-Aug-22 09:34N 52°31' E 002°10'1212.3
2014-Aug-22 08:34N 52°42' E 002°02'1312.8
2014-Aug-22 07:33N 52°51' E 001°46'1413.6
2014-Aug-22 06:34N 53°01' E 001°30'1413.5
2014-Aug-22 05:33N 53°11' E 001°15'2813.1
2014-Aug-22 03:24N 53°27' E 000°37'1112.7
2014-Aug-22 02:33N 53°32' E 000°21'1110.6
2014-Aug-22 01:34N 53°35' E 000°04'1010.1
2014-Aug-22 00:33N 53°39' W 000°12'5 5.0
2014-Aug-21 23:34N 53°44' W 000°15'0 0.0
2014-Aug-21 22:31N 53°44' W 000°15'0 0.0
2014-Aug-21 21:16N 53°44' W 000°15'0 0.0
2014-Aug-21 20:31N 53°44' W 000°15'0 0.0
2014-Aug-21 19:19N 53°44' W 000°15'0 0.0
2014-Aug-21 18:28N 53°44' W 000°15'0 0.0
2014-Aug-21 17:28N 53°44' W 000°15'0 0.0
2014-Aug-21 16:28N 53°44' W 000°15'0 0.0
2014-Aug-21 15:22N 53°44' W 000°15'0 0.0
2014-Aug-21 14:22N 53°44' W 000°15'0 0.0
2014-Aug-21 13:25N 53°44' W 000°15'0 0.0
2014-Aug-21 12:28N 53°44' W 000°15'4 4.1
2014-Aug-21 11:33N 53°40' W 000°13'1211.8
2014-Aug-21 10:33N 53°35' E 000°05'9 9.1
2014-Aug-21 09:33N 53°37' E 000°20'1010.3
2014-Aug-21 08:32N 53°40' E 000°36'23210.5
2014-Aug-20 10:33N 54°12' E 007°06'8 8.6
2014-Aug-20 09:33N 54°12' E 007°20'7 6.7
2014-Aug-20 08:33N 54°09' E 007°31'7 7.3
2014-Aug-20 07:33N 54°03' E 007°37'7 6.7
2014-Aug-20 06:30N 53°57' E 007°43'5 5.4
2014-Aug-20 05:33N 53°53' E 007°48'6 6.4
2014-Aug-20 04:33N 53°49' E 007°57'9 8.6
2014-Aug-20 03:33N 53°42' E 008°05'5 4.7
2014-Aug-20 02:33N 53°37' E 008°08'0 0.0
2014-Aug-20 01:29N 53°37' E 008°08'0 0.0
2014-Aug-20 00:29N 53°37' E 008°08'0 0.0
2014-Aug-19 23:32N 53°37' E 008°08'0 0.0
2014-Aug-19 22:26N 53°37' E 008°08'0 0.0
2014-Aug-19 21:32N 53°37' E 008°08'0 0.0
2014-Aug-19 20:23N 53°37' E 008°08'0 0.0
2014-Aug-19 19:26N 53°37' E 008°08'0 0.0
2014-Aug-19 17:32N 53°37' E 008°08'0 0.0
2014-Aug-19 16:32N 53°37' E 008°08'0 0.0
2014-Aug-19 15:29N 53°37' E 008°08'0 0.0
2014-Aug-19 14:26N 53°37' E 008°08'0 0.0
2014-Aug-19 13:14N 53°37' E 008°08'0 0.0
2014-Aug-19 12:33N 53°37' E 008°08'6 6.1
2014-Aug-19 11:33N 53°43' E 008°04'10 9.0
2014-Aug-19 10:28N 53°50' E 007°53'11 9.6
2014-Aug-19 09:21N 53°54' E 007°36'54 9.2
2014-Aug-19 03:33N 53°42' E 006°07'1211.9
2014-Aug-19 02:33N 53°38' E 005°48'1212.0
2014-Aug-19 01:33N 53°34' E 005°29'1212.3
2014-Aug-19 00:33N 53°31' E 005°10'1212.4
2014-Aug-18 23:33N 53°25' E 004°51'2711.4
2014-Aug-18 21:14N 53°04' E 004°25'811.6
2014-Aug-18 20:33N 52°57' E 004°19'1111.2
2014-Aug-18 19:33N 52°47' E 004°11'1110.9
2014-Aug-18 18:33N 52°39' E 003°59'9 9.5
2014-Aug-18 17:33N 52°30' E 003°54'9 8.9
2014-Aug-18 16:33N 52°21' E 003°52'8 8.1
2014-Aug-18 15:33N 52°13' E 003°53'8 7.7
2014-Aug-18 14:33N 52°05' E 003°56'6 5.6
2014-Aug-18 13:33N 52°00' E 004°00'8 7.8
2014-Aug-18 12:33N 51°56' E 004°11'0 0.0
2014-Aug-18 09:21N 51°56' E 004°11'0 0.0
2014-Aug-18 08:33N 51°56' E 004°11'0 0.0
2014-Aug-18 05:15N 51°56' E 004°11'0 0.0
2014-Aug-18 03:15N 51°56' E 004°11'0 0.0
2014-Aug-18 01:18N 51°56' E 004°11'0 0.0
2014-Aug-18 00:24N 51°56' E 004°11'0 0.0
2014-Aug-17 18:06N 51°56' E 004°11'0 0.3
2014-Aug-17 17:33N 51°56' E 004°11'10 9.8
2014-Aug-17 16:33N 51°60' E 003°57'9 7.6
2014-Aug-17 15:20N 51°55' E 003°44'0 0.0
2014-Aug-17 14:05N 51°55' E 003°44'0 0.0
2014-Aug-17 12:23N 51°55' E 003°44'0 0.0
2014-Aug-17 10:29N 51°55' E 003°44'0 0.0
2014-Aug-17 09:26N 51°55' E 003°43'0 0.0
2014-Aug-17 06:23N 51°55' E 003°43'0 0.1
2014-Aug-17 04:29N 51°55' E 003°43'0 0.0
2014-Aug-16 21:27N 51°56' E 003°44'138 5.5
2014-Aug-15 20:21N 53°34' E 001°05'1012.0
2014-Aug-15 19:32N 53°34' E 000°48'1212.0
2014-Aug-15 18:33N 53°32' E 000°28'1111.2
2014-Aug-15 17:33N 53°33' E 000°10'1010.1
2014-Aug-15 16:33N 53°37' W 000°06'4 3.6
2014-Aug-15 15:33N 53°38' W 000°11'0 0.0
2014-Aug-15 14:22N 53°38' W 000°11'0 0.0
2014-Aug-15 13:25N 53°38' W 000°11'0 0.0
2014-Aug-15 12:04N 53°38' W 000°11'0 0.0
2014-Aug-15 11:25N 53°38' W 000°11'0 0.0
2014-Aug-15 10:13N 53°38' W 000°11'0 0.0
2014-Aug-15 09:25N 53°38' W 000°11'0 0.0
2014-Aug-15 08:25N 53°38' W 000°11'0 0.0
2014-Aug-15 07:31N 53°38' W 000°11'0 0.0
2014-Aug-15 06:25N 53°38' W 000°11'0 0.0
2014-Aug-15 05:31N 53°38' W 000°11'0 0.0
2014-Aug-15 04:31N 53°38' W 000°11'0 0.0
2014-Aug-15 03:31N 53°38' W 000°11'0 0.0
2014-Aug-15 02:22N 53°38' W 000°11'0 0.0
2014-Aug-15 01:22N 53°38' W 000°11'0 0.0
2014-Aug-15 00:31N 53°38' W 000°11'0 0.0
2014-Aug-14 23:25N 53°38' W 000°11'0 0.0
2014-Aug-14 22:25N 53°38' W 000°11'0 0.0
2014-Aug-14 21:25N 53°38' W 000°11'0 0.0
2014-Aug-14 20:28N 53°38' W 000°11'0 0.0
2014-Aug-14 19:25N 53°38' W 000°11'0 0.0
2014-Aug-14 18:28N 53°38' W 000°11'0 0.0
2014-Aug-14 17:31N 53°38' W 000°11'0 0.0
2014-Aug-14 16:28N 53°38' W 000°11'0 0.3
2014-Aug-14 15:33N 53°38' W 000°12'8 8.5
2014-Aug-14 14:33N 53°36' E 000°02'9 9.0
2014-Aug-14 13:33N 53°33' E 000°17'5 5.3
2014-Aug-14 12:33N 53°35' E 000°25'0 0.0
2014-Aug-14 11:27N 53°35' E 000°25'0 0.0
2014-Aug-14 10:12N 53°35' E 000°25'0 0.1
2014-Aug-14 08:24N 53°35' E 000°25'0 0.0
2014-Aug-14 07:30N 53°35' E 000°25'0 0.0
2014-Aug-14 06:27N 53°35' E 000°25'6 6.1
2014-Aug-14 05:33N 53°33' E 000°34'3411.2
2014-Aug-14 02:33N 53°12' E 001°18'1312.7
2014-Aug-14 01:33N 53°01' E 001°30'1211.8
2014-Aug-14 00:33N 52°53' E 001°42'1010.3
2014-Aug-13 23:33N 52°47' E 001°56'10 9.5
2014-Aug-13 22:30N 52°41' E 002°10'9 9.6
2014-Aug-13 21:31N 52°36' E 002°23'5711.5
2014-Aug-13 16:34N 52°06' E 003°42'10 9.6
2014-Aug-13 15:33N 52°02' E 003°57'1110.9
2014-Aug-13 14:33N 51°56' E 004°12'4 4.5
2014-Aug-13 13:33N 51°53' E 004°16'0 0.0
2014-Aug-13 10:23N 51°53' E 004°16'0 0.0
2014-Aug-13 03:11N 51°53' E 004°16'0 0.0
2014-Aug-12 19:11N 51°53' E 004°16'0 0.0
2014-Aug-12 17:13N 51°53' E 004°16'0 0.0
2014-Aug-12 16:31N 51°53' E 004°16'  

Dump ship's entire track history